Map

Track Data

SID SEASON NUMBER BASIN SUBBASIN NAME ISO_TIME NATURE LAT LON WMO_WIND WMO_PRES WMO_AGENCY TRACK_TYPE DIST2LAND LANDFALL IFLAG USA_AGENCY USA_ATCF_ID USA_LAT USA_LON USA_RECORD USA_STATUS USA_WIND USA_PRES USA_SSHS USA_R34_NE USA_R34_SE USA_R34_SW USA_R34_NW USA_R50_NE USA_R50_SE USA_R50_SW USA_R50_NW USA_R64_NE USA_R64_SE USA_R64_SW USA_R64_NW USA_POCI USA_ROCI USA_RMW USA_EYE TOKYO_LAT TOKYO_LON TOKYO_GRADE TOKYO_WIND TOKYO_PRES TOKYO_R50_DIR TOKYO_R50_LONG TOKYO_R50_SHORT TOKYO_R30_DIR TOKYO_R30_LONG TOKYO_R30_SHORT TOKYO_LAND CMA_LAT CMA_LON CMA_CAT CMA_WIND CMA_PRES HKO_LAT HKO_LON HKO_CAT HKO_WIND HKO_PRES NEWDELHI_LAT NEWDELHI_LON NEWDELHI_GRADE NEWDELHI_WIND NEWDELHI_PRES NEWDELHI_CI NEWDELHI_DP NEWDELHI_POCI REUNION_LAT REUNION_LON REUNION_TYPE REUNION_WIND REUNION_PRES REUNION_TNUM REUNION_CI REUNION_RMW REUNION_R34_NE REUNION_R34_SE REUNION_R34_SW REUNION_R34_NW REUNION_R50_NE REUNION_R50_SE REUNION_R50_SW REUNION_R50_NW REUNION_R64_NE REUNION_R64_SE REUNION_R64_SW REUNION_R64_NW BOM_LAT BOM_LON BOM_TYPE BOM_WIND BOM_PRES BOM_TNUM BOM_CI BOM_RMW BOM_R34_NE BOM_R34_SE BOM_R34_SW BOM_R34_NW BOM_R50_NE BOM_R50_SE BOM_R50_SW BOM_R50_NW BOM_R64_NE BOM_R64_SE BOM_R64_SW BOM_R64_NW BOM_ROCI BOM_POCI BOM_EYE BOM_POS_METHOD BOM_PRES_METHOD NADI_LAT NADI_LON NADI_CAT NADI_WIND NADI_PRES WELLINGTON_LAT WELLINGTON_LON WELLINGTON_WIND WELLINGTON_PRES DS824_LAT DS824_LON DS824_STAGE DS824_WIND DS824_PRES TD9636_LAT TD9636_LON TD9636_STAGE TD9636_WIND TD9636_PRES TD9635_LAT TD9635_LON TD9635_WIND TD9635_PRES TD9635_ROCI NEUMANN_LAT NEUMANN_LON NEUMANN_CLASS NEUMANN_WIND NEUMANN_PRES MLC_LAT MLC_LON MLC_CLASS MLC_WIND MLC_PRES USA_GUST BOM_GUST BOM_GUST_PER REUNION_GUST REUNION_GUST_PER USA_SEAHGT USA_SEARAD_NE USA_SEARAD_SE USA_SEARAD_SW USA_SEARAD_NW STORM_SPEED STORM_DIR
1883080S07088 1883 9 SI MM NOT_NAMED 1883-03-21 06:00:00 NR -6.90000 87.6000 main 1377 1368 _____O________ -1 -6.90000 87.6000 99 9.90000 10 144
1883080S07088 1883 9 SI MM NOT_NAMED 1883-03-21 09:00:00 NR -7.29608 87.8923 main 1369 1362 _____P________ -1 -7.29608 87.8923 99 10 144
1883080S07088 1883 9 SI MM NOT_NAMED 1883-03-21 12:00:00 NR -7.69597 88.1880 main 1363 1355 _____P________ -1 -7.69597 88.1880 99 10 144
1883080S07088 1883 9 SI MM NOT_NAMED 1883-03-21 15:00:00 NR -8.10365 88.4899 main 1357 1350 _____P________ -1 -8.10365 88.4899 99 10 144
1883080S07088 1883 9 SI MM NOT_NAMED 1883-03-21 18:00:00 NR -8.52313 88.8011 main 1353 1348 _____P________ -1 -8.52313 88.8011 99 11 144
1883080S07088 1883 9 SI MM NOT_NAMED 1883-03-21 21:00:00 NR -8.95843 89.1246 main 1359 1348 _____P________ -1 -8.95843 89.1246 99 11 144
1883080S07088 1883 9 SI MM NOT_NAMED 1883-03-22 00:00:00 NR -9.41363 89.4634 main 1351 1350 _____P________ -1 -9.41363 89.4634 99 12 144
1883080S07088 1883 9 SI MM NOT_NAMED 1883-03-22 03:00:00 NR -9.89279 89.8208 main 1363 1354 _____P________ -1 -9.89279 89.8208 99 12 144
1883080S07088 1883 9 SI WA NOT_NAMED 1883-03-22 06:00:00 NR -10.4000 90.2000 main 1369 1369 _____O________ -1 -10.4000 90.2000 99 9.90000 13 144
1883080S07088 1883 9 SI WA NOT_NAMED 1883-03-22 09:00:00 NR -10.9363 90.6020 main 1379 1379 _____P________ -1 -10.9363 90.6020 99 14 144
1883080S07088 1883 9 SI WA NOT_NAMED 1883-03-22 12:00:00 NR -11.4906 91.0184 main 1402 1402 _____P________ -1 -11.4906 91.0184 99 14 144
1883080S07088 1883 9 SI WA NOT_NAMED 1883-03-22 15:00:00 NR -12.0487 91.4385 main 1420 1420 _____P________ -1 -12.0487 91.4385 99 14 144
1883080S07088 1883 9 SI WA NOT_NAMED 1883-03-22 18:00:00 NR -12.5964 91.8512 main 1444 1444 _____P________ -1 -12.5964 91.8512 99 13 144
1883080S07088 1883 9 SI WA NOT_NAMED 1883-03-22 21:00:00 NR -13.1194 92.2452 main 1475 1469 _____P________ -1 -13.1194 92.2452 99 13 144
1883080S07088 1883 9 SI WA NOT_NAMED 1883-03-23 00:00:00 NR -13.6037 92.6091 main 1502 1502 _____P________ -1 -13.6037 92.6091 99 11 144
1883080S07088 1883 9 SI WA NOT_NAMED 1883-03-23 03:00:00 NR -14.0352 92.9313 main 1522 1522 _____P________ -1 -14.0352 92.9313 99 10 144
1883080S07088 1883 9 SI WA NOT_NAMED 1883-03-23 06:00:00 NR -14.4000 93.2000 main 1534 1534 _____O________ -1 -14.4000 93.2000 99 9.90000 8 145
1883080S07088 1883 9 SI WA NOT_NAMED 1883-03-23 09:00:00 NR -14.6881 93.4067 main 1545 1545 _____P________ -1 -14.6881 93.4067 99 6 146
1883080S07088 1883 9 SI WA NOT_NAMED 1883-03-23 12:00:00 NR -14.9059 93.5559 main 1547 1547 _____P________ -1 -14.9059 93.5559 99 4 147
1883080S07088 1883 9 SI WA NOT_NAMED 1883-03-23 15:00:00 NR -15.0634 93.6558 main 1556 1556 _____P________ -1 -15.0634 93.6558 99 3 150
1883080S07088 1883 9 SI WA NOT_NAMED 1883-03-23 18:00:00 NR -15.1708 93.7143 main 1565 1565 _____P________ -1 -15.1708 93.7143 99 2 154
1883080S07088 1883 9 SI WA NOT_NAMED 1883-03-23 21:00:00 NR -15.2381 93.7397 main 1565 1565 _____P________ -1 -15.2381 93.7397 99 1 179
1883080S07088 1883 9 SI WA NOT_NAMED 1883-03-24 00:00:00 NR -15.2754 93.7403 main 1573 1573 _____P________ -1 -15.2754 93.7403 99 1 193
1883080S07088 1883 9 SI WA NOT_NAMED 1883-03-24 03:00:00 NR -15.2927 93.7243 main 1573 1573 _____P________ -1 -15.2927 93.7243 99 0 232
1883080S07088 1883 9 SI WA NOT_NAMED 1883-03-24 06:00:00 NR -15.3000 93.7000 main 1573 _____O________ -1 -15.3000 93.7000 99 9.90000 0 0

About IBTrACS Database

This database is a web-friendly format of International Best Track Archive for Climate Stewardship (IBTrACS), a global best track data archive curated by NOAA dating back to 1842.

Updated: 2021-10-21